sensor_id;sensor_type;location;lat;lon;timestamp;P1;durP1;ratioP1;P2;durP2;ratioP2
54883;SDS011;40776;52.880;6.016;2024-03-23T00:53:24;5.65;;;1.63;;
54883;SDS011;40776;52.880;6.016;2024-03-23T00:55:50;4.93;;;1.50;;
54883;SDS011;40776;52.880;6.016;2024-03-23T00:58:16;6.35;;;1.58;;
54883;SDS011;40776;52.880;6.016;2024-03-23T01:00:42;3.08;;;1.67;;
54883;SDS011;40776;52.880;6.016;2024-03-23T01:03:08;4.53;;;1.50;;
54883;SDS011;40776;52.880;6.016;2024-03-23T01:05:34;6.82;;;2.38;;
54883;SDS011;40776;52.880;6.016;2024-03-23T01:08:00;4.18;;;1.50;;
54883;SDS011;40776;52.880;6.016;2024-03-23T01:10:27;4.10;;;1.33;;
54883;SDS011;40776;52.880;6.016;2024-03-23T01:12:53;3.30;;;1.20;;
54883;SDS011;40776;52.880;6.016;2024-03-23T01:15:19;5.57;;;1.42;;
54883;SDS011;40776;52.880;6.016;2024-03-23T01:17:45;5.15;;;1.65;;
54883;SDS011;40776;52.880;6.016;2024-03-23T01:20:11;3.88;;;1.42;;
54883;SDS011;40776;52.880;6.016;2024-03-23T01:22:37;8.02;;;2.22;;
54883;SDS011;40776;52.880;6.016;2024-03-23T01:25:03;3.10;;;1.10;;
54883;SDS011;40776;52.880;6.016;2024-03-23T01:27:29;7.47;;;1.75;;
54883;SDS011;40776;52.880;6.016;2024-03-23T01:29:55;4.40;;;1.40;;
54883;SDS011;40776;52.880;6.016;2024-03-23T01:32:21;2.53;;;0.80;;
54883;SDS011;40776;52.880;6.016;2024-03-23T01:34:47;4.03;;;1.20;;
54883;SDS011;40776;52.880;6.016;2024-03-23T01:37:13;6.13;;;2.58;;
54883;SDS011;40776;52.880;6.016;2024-03-23T01:39:39;3.08;;;1.38;;
54883;SDS011;40776;52.880;6.016;2024-03-23T01:42:05;5.20;;;1.33;;
54883;SDS011;40776;52.880;6.016;2024-03-23T01:44:31;5.20;;;1.45;;
54883;SDS011;40776;52.880;6.016;2024-03-23T01:46:57;5.57;;;1.85;;
54883;SDS011;40776;52.880;6.016;2024-03-23T01:49:24;5.90;;;1.85;;
54883;SDS011;40776;52.880;6.016;2024-03-23T01:51:50;5.05;;;1.95;;
54883;SDS011;40776;52.880;6.016;2024-03-23T01:54:16;5.63;;;1.67;;
54883;SDS011;40776;52.880;6.016;2024-03-23T01:56:42;3.05;;;1.15;;
54883;SDS011;40776;52.880;6.016;2024-03-23T01:59:08;4.50;;;1.17;;
54883;SDS011;40776;52.880;6.016;2024-03-23T02:01:34;6.60;;;1.60;;
54883;SDS011;40776;52.880;6.016;2024-03-23T02:04:01;4.75;;;1.30;;
54883;SDS011;40776;52.880;6.016;2024-03-23T02:06:27;4.35;;;1.23;;
54883;SDS011;40776;52.880;6.016;2024-03-23T02:08:54;6.68;;;1.48;;
54883;SDS011;40776;52.880;6.016;2024-03-23T02:11:20;3.75;;;1.30;;
54883;SDS011;40776;52.880;6.016;2024-03-23T02:13:46;5.72;;;1.55;;
54883;SDS011;40776;52.880;6.016;2024-03-23T02:16:12;5.40;;;1.23;;
54883;SDS011;40776;52.880;6.016;2024-03-23T02:18:38;4.78;;;1.75;;
54883;SDS011;40776;52.880;6.016;2024-03-23T02:21:05;3.83;;;1.10;;
54883;SDS011;40776;52.880;6.016;2024-03-23T02:23:31;5.53;;;1.70;;
54883;SDS011;40776;52.880;6.016;2024-03-23T02:25:57;6.32;;;1.40;;
54883;SDS011;40776;52.880;6.016;2024-03-23T02:28:23;4.53;;;1.17;;
54883;SDS011;40776;52.880;6.016;2024-03-23T02:30:49;4.60;;;1.15;;
54883;SDS011;40776;52.880;6.016;2024-03-23T02:33:16;4.63;;;1.25;;
54883;SDS011;40776;52.880;6.016;2024-03-23T02:35:42;3.55;;;1.33;;
54883;SDS011;40776;52.880;6.016;2024-03-23T02:38:08;5.47;;;1.30;;
54883;SDS011;40776;52.880;6.016;2024-03-23T02:40:34;5.28;;;1.08;;
54883;SDS011;40776;52.880;6.016;2024-03-23T02:43:02;4.80;;;1.45;;
54883;SDS011;40776;52.880;6.016;2024-03-23T02:45:28;4.90;;;1.20;;
54883;SDS011;40776;52.880;6.016;2024-03-23T02:47:54;4.70;;;1.20;;
54883;SDS011;40776;52.880;6.016;2024-03-23T02:50:20;5.70;;;1.63;;
54883;SDS011;40776;52.880;6.016;2024-03-23T02:52:47;4.40;;;1.77;;
54883;SDS011;40776;52.880;6.016;2024-03-23T02:55:13;3.85;;;1.17;;
54883;SDS011;40776;52.880;6.016;2024-03-23T02:57:39;4.38;;;1.63;;
54883;SDS011;40776;52.880;6.016;2024-03-23T03:00:05;3.38;;;1.27;;
54883;SDS011;40776;52.880;6.016;2024-03-23T03:02:32;3.97;;;1.20;;
54883;SDS011;40776;52.880;6.016;2024-03-23T03:04:58;6.65;;;1.10;;
54883;SDS011;40776;52.880;6.016;2024-03-23T03:07:24;4.47;;;1.20;;
54883;SDS011;40776;52.880;6.016;2024-03-23T03:09:50;4.43;;;1.35;;
54883;SDS011;40776;52.880;6.016;2024-03-23T03:12:16;6.30;;;1.77;;
54883;SDS011;40776;52.880;6.016;2024-03-23T03:14:42;4.95;;;1.17;;
54883;SDS011;40776;52.880;6.016;2024-03-23T03:17:08;4.05;;;1.00;;
54883;SDS011;40776;52.880;6.016;2024-03-23T03:19:34;6.00;;;1.67;;
54883;SDS011;40776;52.880;6.016;2024-03-23T03:22:00;4.22;;;1.13;;
54883;SDS011;40776;52.880;6.016;2024-03-23T03:24:26;2.72;;;1.00;;
54883;SDS011;40776;52.880;6.016;2024-03-23T03:26:52;3.17;;;1.15;;
54883;SDS011;40776;52.880;6.016;2024-03-23T03:29:19;14.68;;;3.05;;
54883;SDS011;40776;52.880;6.016;2024-03-23T03:31:45;4.55;;;1.20;;
54883;SDS011;40776;52.880;6.016;2024-03-23T03:34:13;4.35;;;1.27;;
54883;SDS011;40776;52.880;6.016;2024-03-23T03:36:39;3.05;;;1.23;;
54883;SDS011;40776;52.880;6.016;2024-03-23T03:39:05;4.78;;;1.15;;
54883;SDS011;40776;52.880;6.016;2024-03-23T03:41:31;3.65;;;1.27;;
54883;SDS011;40776;52.880;6.016;2024-03-23T03:43:58;6.18;;;1.63;;
54883;SDS011;40776;52.880;6.016;2024-03-23T03:46:30;4.65;;;1.13;;
54883;SDS011;40776;52.880;6.016;2024-03-23T03:48:56;5.60;;;1.33;;
54883;SDS011;40776;52.880;6.016;2024-03-23T03:51:22;4.80;;;1.33;;
54883;SDS011;40776;52.880;6.016;2024-03-23T03:53:48;6.57;;;1.45;;
54883;SDS011;40776;52.880;6.016;2024-03-23T03:56:14;4.97;;;1.27;;
54883;SDS011;40776;52.880;6.016;2024-03-23T03:58:40;3.40;;;0.90;;
54883;SDS011;40776;52.880;6.016;2024-03-23T04:01:06;3.95;;;1.10;;
54883;SDS011;40776;52.880;6.016;2024-03-23T04:03:32;3.33;;;1.20;;
54883;SDS011;40776;52.880;6.016;2024-03-23T04:05:58;7.32;;;1.38;;
54883;SDS011;40776;52.880;6.016;2024-03-23T04:08:25;4.10;;;0.93;;
54883;SDS011;40776;52.880;6.016;2024-03-23T04:10:51;4.65;;;1.38;;
54883;SDS011;40776;52.880;6.016;2024-03-23T04:13:17;3.38;;;1.35;;
54883;SDS011;40776;52.880;6.016;2024-03-23T04:15:43;5.05;;;1.08;;
54883;SDS011;40776;52.880;6.016;2024-03-23T04:18:09;5.45;;;1.10;;
54883;SDS011;40776;52.880;6.016;2024-03-23T04:20:35;2.10;;;0.77;;
54883;SDS011;40776;52.880;6.016;2024-03-23T04:23:01;5.93;;;1.30;;
54883;SDS011;40776;52.880;6.016;2024-03-23T04:25:27;4.15;;;1.10;;
54883;SDS011;40776;52.880;6.016;2024-03-23T04:27:53;4.47;;;1.23;;
54883;SDS011;40776;52.880;6.016;2024-03-23T04:30:19;2.92;;;1.00;;
54883;SDS011;40776;52.880;6.016;2024-03-23T04:32:46;4.82;;;0.95;;
54883;SDS011;40776;52.880;6.016;2024-03-23T04:35:12;2.47;;;0.90;;
54883;SDS011;40776;52.880;6.016;2024-03-23T04:37:39;2.88;;;1.05;;
54883;SDS011;40776;52.880;6.016;2024-03-23T04:40:08;4.43;;;1.13;;
54883;SDS011;40776;52.880;6.016;2024-03-23T04:42:34;3.88;;;1.02;;
54883;SDS011;40776;52.880;6.016;2024-03-23T04:45:00;4.22;;;0.95;;
54883;SDS011;40776;52.880;6.016;2024-03-23T04:47:26;3.92;;;1.38;;
54883;SDS011;40776;52.880;6.016;2024-03-23T04:49:55;2.33;;;0.70;;
54883;SDS011;40776;52.880;6.016;2024-03-23T04:52:21;4.35;;;1.27;;
54883;SDS011;40776;52.880;6.016;2024-03-23T04:54:47;2.78;;;1.00;;
54883;SDS011;40776;52.880;6.016;2024-03-23T04:57:13;3.40;;;1.27;;
54883;SDS011;40776;52.880;6.016;2024-03-23T04:59:41;3.03;;;1.00;;
54883;SDS011;40776;52.880;6.016;2024-03-23T05:02:07;4.57;;;1.00;;
54883;SDS011;40776;52.880;6.016;2024-03-23T05:04:33;3.83;;;0.90;;
54883;SDS011;40776;52.880;6.016;2024-03-23T05:06:59;4.18;;;1.55;;
54883;SDS011;40776;52.880;6.016;2024-03-23T05:09:25;6.28;;;1.58;;
54883;SDS011;40776;52.880;6.016;2024-03-23T05:11:55;4.90;;;1.30;;
54883;SDS011;40776;52.880;6.016;2024-03-23T05:14:21;3.83;;;1.10;;
54883;SDS011;40776;52.880;6.016;2024-03-23T05:16:47;5.32;;;1.35;;
54883;SDS011;40776;52.880;6.016;2024-03-23T05:19:13;4.07;;;0.77;;
54883;SDS011;40776;52.880;6.016;2024-03-23T05:21:39;2.63;;;0.80;;
54883;SDS011;40776;52.880;6.016;2024-03-23T05:24:05;4.18;;;1.20;;
54883;SDS011;40776;52.880;6.016;2024-03-23T05:26:31;6.35;;;1.17;;
54883;SDS011;40776;52.880;6.016;2024-03-23T05:28:59;3.42;;;1.00;;
54883;SDS011;40776;52.880;6.016;2024-03-23T05:31:25;4.22;;;1.38;;
54883;SDS011;40776;52.880;6.016;2024-03-23T05:33:51;3.83;;;1.20;;
54883;SDS011;40776;52.880;6.016;2024-03-23T05:36:17;3.72;;;0.98;;
54883;SDS011;40776;52.880;6.016;2024-03-23T05:38:44;5.68;;;1.63;;
54883;SDS011;40776;52.880;6.016;2024-03-23T05:41:10;7.45;;;1.48;;
54883;SDS011;40776;52.880;6.016;2024-03-23T05:43:36;3.67;;;0.70;;
54883;SDS011;40776;52.880;6.016;2024-03-23T05:46:02;5.38;;;1.20;;
54883;SDS011;40776;52.880;6.016;2024-03-23T05:48:29;4.38;;;1.33;;
54883;SDS011;40776;52.880;6.016;2024-03-23T05:50:55;4.57;;;0.93;;
54883;SDS011;40776;52.880;6.016;2024-03-23T05:53:22;2.42;;;0.73;;
54883;SDS011;40776;52.880;6.016;2024-03-23T05:55:48;6.25;;;1.38;;
54883;SDS011;40776;52.880;6.016;2024-03-23T05:58:15;5.75;;;1.35;;
54883;SDS011;40776;52.880;6.016;2024-03-23T06:00:41;3.67;;;0.80;;
54883;SDS011;40776;52.880;6.016;2024-03-23T06:03:08;3.30;;;0.80;;
54883;SDS011;40776;52.880;6.016;2024-03-23T06:05:34;3.70;;;2.03;;
54883;SDS011;40776;52.880;6.016;2024-03-23T06:08:00;5.45;;;1.48;;
54883;SDS011;40776;52.880;6.016;2024-03-23T06:10:26;2.78;;;0.80;;
54883;SDS011;40776;52.880;6.016;2024-03-23T06:12:52;3.15;;;1.05;;
54883;SDS011;40776;52.880;6.016;2024-03-23T06:15:19;2.83;;;0.93;;
54883;SDS011;40776;52.880;6.016;2024-03-23T06:17:45;2.75;;;1.25;;
54883;SDS011;40776;52.880;6.016;2024-03-23T06:20:11;2.75;;;0.90;;
54883;SDS011;40776;52.880;6.016;2024-03-23T06:22:37;4.78;;;1.00;;
54883;SDS011;40776;52.880;6.016;2024-03-23T06:25:04;4.35;;;1.05;;
54883;SDS011;40776;52.880;6.016;2024-03-23T06:27:30;3.47;;;1.10;;
54883;SDS011;40776;52.880;6.016;2024-03-23T06:29:57;4.57;;;0.95;;
54883;SDS011;40776;52.880;6.016;2024-03-23T06:32:23;4.60;;;0.90;;
54883;SDS011;40776;52.880;6.016;2024-03-23T06:34:49;5.45;;;2.08;;
54883;SDS011;40776;52.880;6.016;2024-03-23T06:37:15;5.97;;;1.10;;
54883;SDS011;40776;52.880;6.016;2024-03-23T06:39:41;4.68;;;1.10;;
54883;SDS011;40776;52.880;6.016;2024-03-23T06:42:10;4.55;;;1.10;;
54883;SDS011;40776;52.880;6.016;2024-03-23T06:44:36;3.15;;;1.08;;
54883;SDS011;40776;52.880;6.016;2024-03-23T06:47:02;3.05;;;0.90;;
54883;SDS011;40776;52.880;6.016;2024-03-23T06:49:28;3.08;;;1.02;;
54883;SDS011;40776;52.880;6.016;2024-03-23T06:51:54;4.43;;;1.10;;
54883;SDS011;40776;52.880;6.016;2024-03-23T06:54:20;3.85;;;1.20;;
54883;SDS011;40776;52.880;6.016;2024-03-23T06:56:46;4.72;;;1.20;;
54883;SDS011;40776;52.880;6.016;2024-03-23T06:59:15;3.72;;;0.90;;
54883;SDS011;40776;52.880;6.016;2024-03-23T07:01:41;3.95;;;1.23;;
54883;SDS011;40776;52.880;6.016;2024-03-23T07:04:07;3.38;;;0.80;;
54883;SDS011;40776;52.880;6.016;2024-03-23T07:06:33;5.30;;;1.10;;
54883;SDS011;40776;52.880;6.016;2024-03-23T07:08:59;2.72;;;0.85;;
54883;SDS011;40776;52.880;6.016;2024-03-23T07:11:25;4.60;;;1.27;;
54883;SDS011;40776;52.880;6.016;2024-03-23T07:13:52;4.20;;;0.90;;
54883;SDS011;40776;52.880;6.016;2024-03-23T07:16:19;3.42;;;0.90;;
54883;SDS011;40776;52.880;6.016;2024-03-23T07:18:46;6.47;;;0.70;;
54883;SDS011;40776;52.880;6.016;2024-03-23T07:21:12;2.97;;;0.90;;
54883;SDS011;40776;52.880;6.016;2024-03-23T07:23:41;3.50;;;0.82;;
54883;SDS011;40776;52.880;6.016;2024-03-23T07:26:09;2.63;;;1.35;;
54883;SDS011;40776;52.880;6.016;2024-03-23T07:28:36;3.85;;;1.00;;
54883;SDS011;40776;52.880;6.016;2024-03-23T07:33:31;5.35;;;1.40;;
54883;SDS011;40776;52.880;6.016;2024-03-23T07:35:58;2.28;;;0.88;;
54883;SDS011;40776;52.880;6.016;2024-03-23T07:38:31;4.00;;;1.10;;
54883;SDS011;40776;52.880;6.016;2024-03-23T07:41:07;3.25;;;1.10;;
54883;SDS011;40776;52.880;6.016;2024-03-23T07:43:33;2.30;;;0.80;;
54883;SDS011;40776;52.880;6.016;2024-03-23T07:46:00;5.28;;;1.45;;
54883;SDS011;40776;52.880;6.016;2024-03-23T07:48:26;4.20;;;0.60;;
54883;SDS011;40776;52.880;6.016;2024-03-23T07:50:56;2.60;;;0.70;;
54883;SDS011;40776;52.880;6.016;2024-03-23T07:53:22;3.70;;;1.55;;
54883;SDS011;40776;52.880;6.016;2024-03-23T07:55:55;2.22;;;0.85;;
54883;SDS011;40776;52.880;6.016;2024-03-23T07:58:22;4.15;;;1.00;;
54883;SDS011;40776;52.880;6.016;2024-03-23T08:00:48;2.80;;;0.90;;
54883;SDS011;40776;52.880;6.016;2024-03-23T08:03:14;2.33;;;0.90;;
54883;SDS011;40776;52.880;6.016;2024-03-23T08:05:40;3.55;;;0.90;;
54883;SDS011;40776;52.880;6.016;2024-03-23T08:08:06;1.88;;;0.93;;
54883;SDS011;40776;52.880;6.016;2024-03-23T08:10:35;2.47;;;0.90;;
54883;SDS011;40776;52.880;6.016;2024-03-23T08:13:01;3.33;;;0.90;;
54883;SDS011;40776;52.880;6.016;2024-03-23T08:15:29;2.38;;;0.80;;
54883;SDS011;40776;52.880;6.016;2024-03-23T08:17:58;3.50;;;1.13;;
54883;SDS011;40776;52.880;6.016;2024-03-23T08:20:24;2.38;;;0.90;;
54883;SDS011;40776;52.880;6.016;2024-03-23T08:22:50;5.68;;;1.08;;
54883;SDS011;40776;52.880;6.016;2024-03-23T08:25:16;3.13;;;0.90;;
54883;SDS011;40776;52.880;6.016;2024-03-23T08:27:44;3.00;;;0.85;;
54883;SDS011;40776;52.880;6.016;2024-03-23T08:30:10;6.65;;;1.20;;
54883;SDS011;40776;52.880;6.016;2024-03-23T08:32:36;5.28;;;1.00;;
54883;SDS011;40776;52.880;6.016;2024-03-23T08:35:02;4.47;;;0.93;;
54883;SDS011;40776;52.880;6.016;2024-03-23T08:37:29;4.10;;;1.10;;
54883;SDS011;40776;52.880;6.016;2024-03-23T08:39:55;5.20;;;1.27;;
54883;SDS011;40776;52.880;6.016;2024-03-23T08:42:21;5.30;;;1.20;;
54883;SDS011;40776;52.880;6.016;2024-03-23T08:44:47;6.65;;;1.25;;
54883;SDS011;40776;52.880;6.016;2024-03-23T08:47:16;6.10;;;1.55;;
54883;SDS011;40776;52.880;6.016;2024-03-23T08:49:42;3.80;;;0.93;;
54883;SDS011;40776;52.880;6.016;2024-03-23T08:52:08;5.60;;;2.08;;
54883;SDS011;40776;52.880;6.016;2024-03-23T08:54:34;5.78;;;1.15;;
54883;SDS011;40776;52.880;6.016;2024-03-23T08:57:00;4.68;;;1.20;;
54883;SDS011;40776;52.880;6.016;2024-03-23T08:59:26;3.13;;;1.20;;
54883;SDS011;40776;52.880;6.016;2024-03-23T09:01:53;5.20;;;1.30;;
54883;SDS011;40776;52.880;6.016;2024-03-23T09:04:19;6.38;;;1.30;;
54883;SDS011;40776;52.880;6.016;2024-03-23T09:06:45;5.20;;;1.10;;
54883;SDS011;40776;52.880;6.016;2024-03-23T09:09:11;6.95;;;1.20;;
54883;SDS011;40776;52.880;6.016;2024-03-23T09:11:37;6.30;;;1.98;;
54883;SDS011;40776;52.880;6.016;2024-03-23T09:14:03;2.58;;;1.23;;
54883;SDS011;40776;52.880;6.016;2024-03-23T09:16:29;4.75;;;1.20;;
54883;SDS011;40776;52.880;6.016;2024-03-23T09:18:55;3.67;;;1.30;;
54883;SDS011;40776;52.880;6.016;2024-03-23T09:21:21;5.25;;;1.40;;
54883;SDS011;40776;52.880;6.016;2024-03-23T09:23:47;5.57;;;1.10;;
54883;SDS011;40776;52.880;6.016;2024-03-23T09:26:14;5.20;;;1.20;;
54883;SDS011;40776;52.880;6.016;2024-03-23T09:28:40;5.15;;;1.20;;
54883;SDS011;40776;52.880;6.016;2024-03-23T09:31:07;6.10;;;1.40;;
54883;SDS011;40776;52.880;6.016;2024-03-23T09:33:33;5.32;;;1.10;;
54883;SDS011;40776;52.880;6.016;2024-03-23T09:36:05;6.13;;;1.13;;
54883;SDS011;40776;52.880;6.016;2024-03-23T09:38:31;6.05;;;1.33;;
54883;SDS011;40776;52.880;6.016;2024-03-23T09:40:58;6.20;;;1.63;;
54883;SDS011;40776;52.880;6.016;2024-03-23T09:43:24;4.60;;;1.15;;
54883;SDS011;40776;52.880;6.016;2024-03-23T09:45:51;4.95;;;1.10;;
54883;SDS011;40776;52.880;6.016;2024-03-23T09:48:17;5.30;;;1.00;;
54883;SDS011;40776;52.880;6.016;2024-03-23T09:50:44;4.38;;;1.60;;
54883;SDS011;40776;52.880;6.016;2024-03-23T09:53:11;4.70;;;1.17;;
54883;SDS011;40776;52.880;6.016;2024-03-23T09:55:38;4.72;;;1.35;;
54883;SDS011;40776;52.880;6.016;2024-03-23T09:58:04;3.20;;;1.88;;
54883;SDS011;40776;52.880;6.016;2024-03-23T10:00:34;3.78;;;1.10;;
54883;SDS011;40776;52.880;6.016;2024-03-23T10:03:00;7.90;;;1.20;;
54883;SDS011;40776;52.880;6.016;2024-03-23T10:05:27;4.65;;;1.10;;
54883;SDS011;40776;52.880;6.016;2024-03-23T10:07:53;6.68;;;1.20;;
54883;SDS011;40776;52.880;6.016;2024-03-23T10:10:19;2.92;;;1.00;;
54883;SDS011;40776;52.880;6.016;2024-03-23T10:12:49;4.35;;;1.00;;
54883;SDS011;40776;52.880;6.016;2024-03-23T10:15:22;4.15;;;1.13;;
54883;SDS011;40776;52.880;6.016;2024-03-23T10:17:49;3.90;;;1.20;;
54883;SDS011;40776;52.880;6.016;2024-03-23T10:20:21;8.23;;;2.65;;
54883;SDS011;40776;52.880;6.016;2024-03-23T10:22:48;7.45;;;1.38;;
54883;SDS011;40776;52.880;6.016;2024-03-23T10:25:14;5.05;;;2.03;;
54883;SDS011;40776;52.880;6.016;2024-03-23T10:27:40;5.90;;;1.13;;
54883;SDS011;40776;52.880;6.016;2024-03-23T10:30:12;4.72;;;1.20;;
54883;SDS011;40776;52.880;6.016;2024-03-23T10:32:39;4.57;;;1.20;;
54883;SDS011;40776;52.880;6.016;2024-03-23T10:35:18;3.20;;;1.05;;
54883;SDS011;40776;52.880;6.016;2024-03-23T10:37:47;4.20;;;0.93;;
54883;SDS011;40776;52.880;6.016;2024-03-23T10:40:16;5.35;;;1.65;;
54883;SDS011;40776;52.880;6.016;2024-03-23T10:42:43;5.53;;;1.20;;
54883;SDS011;40776;52.880;6.016;2024-03-23T10:45:09;4.05;;;0.90;;
54883;SDS011;40776;52.880;6.016;2024-03-23T10:47:36;3.15;;;0.93;;
54883;SDS011;40776;52.880;6.016;2024-03-23T10:50:05;3.72;;;1.00;;
54883;SDS011;40776;52.880;6.016;2024-03-23T10:52:34;6.35;;;1.25;;
54883;SDS011;40776;52.880;6.016;2024-03-23T10:55:02;5.25;;;1.08;;
54883;SDS011;40776;52.880;6.016;2024-03-23T10:57:34;8.02;;;1.33;;
54883;SDS011;40776;52.880;6.016;2024-03-23T11:00:02;7.90;;;1.60;;
54883;SDS011;40776;52.880;6.016;2024-03-23T11:02:29;4.13;;;1.48;;
54883;SDS011;40776;52.880;6.016;2024-03-23T11:04:55;3.28;;;0.98;;
54883;SDS011;40776;52.880;6.016;2024-03-23T11:09:53;2.88;;;1.02;;
54883;SDS011;40776;52.880;6.016;2024-03-23T11:14:45;5.00;;;0.98;;
54883;SDS011;40776;52.880;6.016;2024-03-23T11:17:17;3.70;;;0.90;;
54883;SDS011;40776;52.880;6.016;2024-03-23T11:19:43;5.65;;;1.30;;
54883;SDS011;40776;52.880;6.016;2024-03-23T11:22:09;3.95;;;1.00;;
54883;SDS011;40776;52.880;6.016;2024-03-23T11:24:35;4.90;;;1.00;;
54883;SDS011;40776;52.880;6.016;2024-03-23T11:27:15;6.57;;;1.20;;
54883;SDS011;40776;52.880;6.016;2024-03-23T11:29:41;3.85;;;1.00;;
54883;SDS011;40776;52.880;6.016;2024-03-23T11:32:07;3.90;;;1.05;;
54883;SDS011;40776;52.880;6.016;2024-03-23T11:34:38;3.08;;;1.20;;
54883;SDS011;40776;52.880;6.016;2024-03-23T11:37:04;4.43;;;1.30;;
54883;SDS011;40776;52.880;6.016;2024-03-23T11:39:31;4.60;;;0.93;;
54883;SDS011;40776;52.880;6.016;2024-03-23T11:41:57;3.85;;;1.10;;
54883;SDS011;40776;52.880;6.016;2024-03-23T11:44:24;6.50;;;1.02;;
54883;SDS011;40776;52.880;6.016;2024-03-23T11:46:51;3.20;;;1.10;;
54883;SDS011;40776;52.880;6.016;2024-03-23T11:49:21;3.67;;;1.00;;
54883;SDS011;40776;52.880;6.016;2024-03-23T11:51:47;2.75;;;0.80;;
54883;SDS011;40776;52.880;6.016;2024-03-23T11:54:14;3.25;;;0.93;;
54883;SDS011;40776;52.880;6.016;2024-03-23T11:56:40;2.83;;;0.70;;
54883;SDS011;40776;52.880;6.016;2024-03-23T11:59:06;4.78;;;0.90;;
54883;SDS011;40776;52.880;6.016;2024-03-23T12:01:33;4.45;;;0.90;;
54883;SDS011;40776;52.880;6.016;2024-03-23T12:03:59;3.38;;;0.93;;
54883;SDS011;40776;52.880;6.016;2024-03-23T12:06:25;3.35;;;1.00;;
54883;SDS011;40776;52.880;6.016;2024-03-23T12:08:51;5.75;;;1.25;;
54883;SDS011;40776;52.880;6.016;2024-03-23T12:11:17;4.90;;;0.68;;
54883;SDS011;40776;52.880;6.016;2024-03-23T12:13:44;3.85;;;1.35;;
54883;SDS011;40776;52.880;6.016;2024-03-23T12:18:41;3.67;;;0.95;;
54883;SDS011;40776;52.880;6.016;2024-03-23T12:21:08;4.13;;;0.80;;
54883;SDS011;40776;52.880;6.016;2024-03-23T12:23:34;2.08;;;0.80;;
54883;SDS011;40776;52.880;6.016;2024-03-23T12:26:00;4.38;;;1.08;;
54883;SDS011;40776;52.880;6.016;2024-03-23T12:28:27;3.65;;;1.02;;
54883;SDS011;40776;52.880;6.016;2024-03-23T12:30:53;3.75;;;0.95;;
54883;SDS011;40776;52.880;6.016;2024-03-23T12:33:20;4.35;;;1.05;;
54883;SDS011;40776;52.880;6.016;2024-03-23T12:35:46;5.05;;;1.30;;
54883;SDS011;40776;52.880;6.016;2024-03-23T12:38:12;6.53;;;1.30;;
54883;SDS011;40776;52.880;6.016;2024-03-23T12:40:38;4.38;;;1.48;;
54883;SDS011;40776;52.880;6.016;2024-03-23T12:43:04;6.70;;;1.20;;
54883;SDS011;40776;52.880;6.016;2024-03-23T12:45:30;8.93;;;1.80;;
54883;SDS011;40776;52.880;6.016;2024-03-23T12:47:56;10.02;;;1.45;;
54883;SDS011;40776;52.880;6.016;2024-03-23T12:50:23;6.78;;;1.35;;
54883;SDS011;40776;52.880;6.016;2024-03-23T12:52:49;5.85;;;1.13;;
54883;SDS011;40776;52.880;6.016;2024-03-23T12:55:15;3.90;;;1.13;;
54883;SDS011;40776;52.880;6.016;2024-03-23T12:57:41;6.20;;;2.33;;
54883;SDS011;40776;52.880;6.016;2024-03-23T13:00:07;5.68;;;1.38;;
54883;SDS011;40776;52.880;6.016;2024-03-23T13:02:36;3.83;;;1.10;;
54883;SDS011;40776;52.880;6.016;2024-03-23T13:05:03;5.43;;;1.10;;
54883;SDS011;40776;52.880;6.016;2024-03-23T13:07:29;6.72;;;1.33;;
54883;SDS011;40776;52.880;6.016;2024-03-23T13:09:55;4.88;;;1.27;;
54883;SDS011;40776;52.880;6.016;2024-03-23T13:12:22;6.20;;;1.20;;
54883;SDS011;40776;52.880;6.016;2024-03-23T13:14:48;7.57;;;1.45;;
54883;SDS011;40776;52.880;6.016;2024-03-23T13:17:14;4.93;;;1.13;;
54883;SDS011;40776;52.880;6.016;2024-03-23T13:19:43;7.20;;;1.20;;
54883;SDS011;40776;52.880;6.016;2024-03-23T13:22:09;10.75;;;1.52;;
54883;SDS011;40776;52.880;6.016;2024-03-23T13:24:37;9.40;;;1.67;;
54883;SDS011;40776;52.880;6.016;2024-03-23T13:27:03;10.90;;;1.70;;
54883;SDS011;40776;52.880;6.016;2024-03-23T13:29:33;8.23;;;1.30;;
54883;SDS011;40776;52.880;6.016;2024-03-23T13:31:59;7.07;;;1.30;;
54883;SDS011;40776;52.880;6.016;2024-03-23T13:34:26;6.75;;;1.50;;
54883;SDS011;40776;52.880;6.016;2024-03-23T13:36:52;6.07;;;1.33;;
54883;SDS011;40776;52.880;6.016;2024-03-23T13:39:19;8.30;;;1.80;;
54883;SDS011;40776;52.880;6.016;2024-03-23T13:41:45;6.40;;;1.52;;
54883;SDS011;40776;52.880;6.016;2024-03-23T13:44:12;6.82;;;2.35;;
54883;SDS011;40776;52.880;6.016;2024-03-23T13:46:39;6.13;;;1.30;;
54883;SDS011;40776;52.880;6.016;2024-03-23T13:49:07;5.45;;;1.38;;
54883;SDS011;40776;52.880;6.016;2024-03-23T13:51:36;4.68;;;1.80;;
54883;SDS011;40776;52.880;6.016;2024-03-23T13:54:02;5.28;;;1.23;;
54883;SDS011;40776;52.880;6.016;2024-03-23T13:56:28;6.85;;;1.63;;
54883;SDS011;40776;52.880;6.016;2024-03-23T13:58:55;3.88;;;1.10;;
54883;SDS011;40776;52.880;6.016;2024-03-23T14:01:21;3.40;;;1.10;;
54883;SDS011;40776;52.880;6.016;2024-03-23T14:03:48;4.55;;;1.17;;
54883;SDS011;40776;52.880;6.016;2024-03-23T14:06:14;6.18;;;1.63;;
54883;SDS011;40776;52.880;6.016;2024-03-23T14:08:40;6.10;;;1.17;;
54883;SDS011;40776;52.880;6.016;2024-03-23T14:11:06;7.43;;;1.30;;
54883;SDS011;40776;52.880;6.016;2024-03-23T14:13:33;7.40;;;1.30;;
54883;SDS011;40776;52.880;6.016;2024-03-23T14:16:00;6.40;;;1.20;;
54883;SDS011;40776;52.880;6.016;2024-03-23T14:18:27;7.78;;;1.70;;
54883;SDS011;40776;52.880;6.016;2024-03-23T14:20:56;4.35;;;1.20;;
54883;SDS011;40776;52.880;6.016;2024-03-23T14:23:25;7.45;;;1.50;;
54883;SDS011;40776;52.880;6.016;2024-03-23T14:25:55;4.53;;;1.27;;
54883;SDS011;40776;52.880;6.016;2024-03-23T14:28:22;6.78;;;1.25;;
54883;SDS011;40776;52.880;6.016;2024-03-23T14:30:52;4.05;;;1.20;;
54883;SDS011;40776;52.880;6.016;2024-03-23T14:33:18;7.80;;;1.48;;
54883;SDS011;40776;52.880;6.016;2024-03-23T14:35:53;6.97;;;1.50;;
54883;SDS011;40776;52.880;6.016;2024-03-23T14:38:23;4.30;;;1.30;;
54883;SDS011;40776;52.880;6.016;2024-03-23T14:40:49;4.57;;;1.20;;
54883;SDS011;40776;52.880;6.016;2024-03-23T14:43:17;4.18;;;1.30;;
54883;SDS011;40776;52.880;6.016;2024-03-23T14:46:05;8.15;;;1.40;;
54883;SDS011;40776;52.880;6.016;2024-03-23T14:48:31;69.30;;;6.38;;
54883;SDS011;40776;52.880;6.016;2024-03-23T14:50:57;48.05;;;5.30;;
54883;SDS011;40776;52.880;6.016;2024-03-23T14:53:24;138.48;;;17.63;;
54883;SDS011;40776;52.880;6.016;2024-03-23T14:55:53;86.57;;;12.82;;
54883;SDS011;40776;52.880;6.016;2024-03-23T14:58:19;123.70;;;16.77;;
54883;SDS011;40776;52.880;6.016;2024-03-23T15:00:46;108.53;;;17.05;;
54883;SDS011;40776;52.880;6.016;2024-03-23T15:03:13;181.52;;;21.63;;
54883;SDS011;40776;52.880;6.016;2024-03-23T15:05:39;212.07;;;26.38;;
54883;SDS011;40776;52.880;6.016;2024-03-23T15:08:05;177.77;;;24.20;;
54883;SDS011;40776;52.880;6.016;2024-03-23T15:10:34;165.07;;;21.25;;
54883;SDS011;40776;52.880;6.016;2024-03-23T15:13:00;136.55;;;18.38;;
54883;SDS011;40776;52.880;6.016;2024-03-23T15:15:27;132.48;;;18.52;;
54883;SDS011;40776;52.880;6.016;2024-03-23T15:17:53;99.45;;;15.85;;
54883;SDS011;40776;52.880;6.016;2024-03-23T15:20:19;77.38;;;13.52;;
54883;SDS011;40776;52.880;6.016;2024-03-23T15:22:45;131.13;;;19.30;;
54883;SDS011;40776;52.880;6.016;2024-03-23T15:25:11;134.50;;;18.55;;
54883;SDS011;40776;52.880;6.016;2024-03-23T15:27:37;121.88;;;17.73;;
54883;SDS011;40776;52.880;6.016;2024-03-23T15:30:04;92.47;;;14.50;;
54883;SDS011;40776;52.880;6.016;2024-03-23T15:32:32;85.13;;;15.20;;
54883;SDS011;40776;52.880;6.016;2024-03-23T15:34:59;72.10;;;13.73;;
54883;SDS011;40776;52.880;6.016;2024-03-23T15:37:28;65.97;;;11.93;;
54883;SDS011;40776;52.880;6.016;2024-03-23T15:39:54;58.70;;;10.88;;
54883;SDS011;40776;52.880;6.016;2024-03-23T15:42:20;51.50;;;11.23;;
54883;SDS011;40776;52.880;6.016;2024-03-23T15:44:47;52.88;;;10.18;;